| time (UTC) | temp C | wind direction | speed KPH | gust KPH | rain 1hr cm | rain 24hr cm | rain mn cm | humidity % | barometer mb |
| 20260504130515 | 13 | 231 | 3.2 | 9.7 | 0.00 | 0.00 | 0.00 | 58 | 1010.8 |
| 20260504110546 | 6 | 233 | 0.0 | 0.0 | 0.00 | 0.00 | 0.00 | 74 | 1011.5 |
| 20260504100546 | 6 | 233 | 0.0 | 0.0 | 0.00 | 0.00 | 0.00 | 75 | 1011.4 |
| 20260504081602 | 7 | 233 | 1.6 | 4.8 | 0.00 | 0.00 | 0.00 | 67 | 1011.9 |
| 20260504081041 | 7 | 233 | 1.6 | 4.8 | 0.00 | 0.00 | 0.00 | 68 | 1011.9 |
| 20260504080520 | 7 | 260 | 1.6 | 3.2 | 0.00 | 0.00 | 0.00 | 71 | 1011.9 |
| 20260504050518 | 7 | 266 | 0.0 | 0.0 | 0.00 | 0.00 | 0.00 | 70 | 1012.6 |
| 20260504045512 | 7 | 266 | 0.0 | 0.0 | 0.00 | 0.00 | 0.00 | 70 | 1012.7 |
| 20260504045053 | 7 | 266 | 0.0 | 0.0 | 0.00 | 0.00 | 0.00 | 68 | 1012.7 |
| 20260504044506 | 7 | 266 | 0.0 | 0.0 | 0.00 | 0.00 | 0.00 | 71 | 1012.7 |
| 20260504044048 | 7 | 266 | 0.0 | 0.0 | 0.00 | 0.00 | 0.00 | 70 | 1012.6 |
| 20260504043535 | 7 | 266 | 0.0 | 0.0 | 0.00 | 0.00 | 0.00 | 68 | 1012.7 |
| 20260504043046 | 7 | 266 | 0.0 | 0.0 | 0.00 | 0.00 | 0.00 | 64 | 1012.7 |
| 20260504042524 | 7 | 266 | 0.0 | 0.0 | 0.00 | 0.00 | 0.00 | 66 | 1012.5 |
| 20260504042002 | 7 | 266 | 0.0 | 0.0 | 0.00 | 0.00 | 0.00 | 66 | 1012.7 |
| 20260504041518 | 7 | 266 | 0.0 | 0.0 | 0.00 | 0.00 | 0.00 | 68 | 1012.7 |
| 20260504041102 | 7 | 266 | 0.0 | 0.0 | 0.00 | 0.00 | 0.00 | 66 | 1012.7 |
| 20260504040542 | 7 | 266 | 0.0 | 0.0 | 0.00 | 0.00 | 0.00 | 64 | 1012.8 |
| 20260504040056 | 7 | 266 | 0.0 | 0.0 | 0.00 | 0.00 | 0.00 | 63 | 1012.8 |
| 20260504035535 | 7 | 266 | 0.0 | 0.0 | 0.00 | 0.00 | 0.00 | 63 | 1012.7 |
| 20260504035012 | 8 | 266 | 0.0 | 0.0 | 0.00 | 0.00 | 0.00 | 64 | 1012.8 |
| 20260504034531 | 8 | 266 | 0.0 | 0.0 | 0.00 | 0.00 | 0.00 | 60 | 1012.8 |
| 20260504034010 | 8 | 266 | 0.0 | 0.0 | 0.00 | 0.00 | 0.00 | 60 | 1012.8 |
| 20260504033551 | 7 | 266 | 0.0 | 0.0 | 0.00 | 0.00 | 0.00 | 59 | 1012.8 |
| 20260504033004 | 7 | 266 | 0.0 | 0.0 | 0.00 | 0.00 | 0.00 | 60 | 1012.8 |
| 20260504032546 | 7 | 266 | 0.0 | 0.0 | 0.00 | 0.00 | 0.00 | 60 | 1012.6 |
| 20260504032024 | 8 | 266 | 0.0 | 0.0 | 0.00 | 0.00 | 0.00 | 60 | 1012.7 |
| 20260504031559 | 8 | 266 | 0.0 | 0.0 | 0.00 | 0.00 | 0.00 | 59 | 1012.8 |
| 20260504031017 | 8 | 266 | 0.0 | 1.6 | 0.00 | 0.00 | 0.00 | 59 | 1012.8 |
| 20260504030602 | 8 | 266 | 0.0 | 1.6 | 0.00 | 0.00 | 0.00 | 56 | 1012.7 |
| 20260504030012 | 8 | 266 | 0.0 | 0.0 | 0.00 | 0.00 | 0.00 | 56 | 1012.6 |
| 20260504025555 | 8 | 266 | 0.0 | 0.0 | 0.00 | 0.00 | 0.00 | 57 | 1012.7 |
| 20260504025034 | 8 | 266 | 0.0 | 0.0 | 0.00 | 0.00 | 0.00 | 55 | 1012.6 |
| 20260504024551 | 8 | 266 | 0.0 | 0.0 | 0.00 | 0.00 | 0.00 | 54 | 1012.6 |
| 20260504024028 | 8 | 266 | 0.0 | 0.0 | 0.00 | 0.00 | 0.00 | 53 | 1012.8 |
| 20260504023506 | 8 | 266 | 0.0 | 0.0 | 0.00 | 0.00 | 0.00 | 53 | 1012.8 |
| 20260504023024 | 8 | 266 | 0.0 | 3.2 | 0.00 | 0.00 | 0.00 | 55 | 1012.7 |
| 20260504022502 | 8 | 266 | 0.0 | 3.2 | 0.00 | 0.00 | 0.00 | 53 | 1012.7 |
| 20260504022042 | 8 | 266 | 0.0 | 3.2 | 0.00 | 0.00 | 0.00 | 55 | 1012.8 |
| 20260504021547 | 8 | 266 | 0.0 | 3.2 | 0.00 | 0.00 | 0.00 | 55 | 1012.8 |
| 20260504021026 | 8 | 266 | 0.0 | 1.6 | 0.00 | 0.00 | 0.00 | 53 | 1012.7 |
| 20260504020505 | 9 | 266 | 0.0 | 3.2 | 0.00 | 0.00 | 0.00 | 54 | 1012.8 |
| 20260504020014 | 9 | 266 | 0.0 | 3.2 | 0.00 | 0.00 | 0.00 | 52 | 1012.7 |
| 20260504015553 | 9 | 279 | 1.6 | 3.2 | 0.00 | 0.00 | 0.00 | 54 | 1012.7 |
| 20260504015035 | 9 | 279 | 0.0 | 3.2 | 0.00 | 0.00 | 0.00 | 50 | 1012.5 |
| 20260504014539 | 9 | 279 | 0.0 | 3.2 | 0.00 | 0.00 | 0.00 | 53 | 1012.5 |
| 20260504014017 | 9 | 279 | 0.0 | 1.6 | 0.00 | 0.00 | 0.00 | 52 | 1012.3 |
| 20260504013556 | 9 | 279 | 0.0 | 4.8 | 0.00 | 0.00 | 0.00 | 50 | 1012.3 |
| 20260504013101 | 10 | 279 | 0.0 | 4.8 | 0.00 | 0.00 | 0.00 | 50 | 1012.3 |
| 20260504012540 | 10 | 301 | 0.0 | 0.0 | 0.00 | 0.00 | 0.00 | 50 | 1012.2 |
| 20260504012023 | 10 | 301 | 0.0 | 0.0 | 0.00 | 0.00 | 0.00 | 49 | 1012.1 |
| 20260504011525 | 10 | 301 | 0.0 | 0.0 | 0.00 | 0.00 | 0.00 | 48 | 1012.1 |
| 20260504011002 | 10 | 301 | 0.0 | 3.2 | 0.00 | 0.00 | 0.00 | 48 | 1012.0 |
| 20260504010544 | 10 | 301 | 0.0 | 3.2 | 0.00 | 0.00 | 0.00 | 47 | 1012.0 |
| 20260504010049 | 10 | 301 | 0.0 | 3.2 | 0.00 | 0.00 | 0.00 | 48 | 1012.1 |
| 20260504005528 | 11 | 301 | 0.0 | 3.2 | 0.00 | 0.00 | 0.00 | 47 | 1012.0 |
| 20260504005008 | 11 | 301 | 0.0 | 4.8 | 0.00 | 0.00 | 0.00 | 47 | 1011.9 |
| 20260504004514 | 11 | 295 | 0.0 | 4.8 | 0.00 | 0.00 | 0.00 | 44 | 1011.8 |
| 20260504004057 | 12 | 295 | 0.0 | 6.4 | 0.00 | 0.00 | 0.00 | 42 | 1011.9 |
| 20260504003536 | 12 | 295 | 1.6 | 9.7 | 0.00 | 0.00 | 0.00 | 39 | 1011.9 |
| 20260504003043 | 12 | 301 | 4.8 | 9.7 | 0.00 | 0.00 | 0.00 | 38 | 1011.9 |
| 20260504002518 | 13 | 306 | 1.6 | 6.4 | 0.00 | 0.00 | 0.00 | 39 | 1011.8 |
| 20260504002101 | 13 | 297 | 4.8 | 8.0 | 0.00 | 0.00 | 0.00 | 39 | 1011.8 |
| 20260504001603 | 13 | 285 | 3.2 | 8.0 | 0.00 | 0.00 | 0.00 | 39 | 1011.7 |
| 20260504001041 | 13 | 292 | 4.8 | 9.7 | 0.00 | 0.00 | 0.00 | 38 | 1011.8 |
| 20260504000519 | 13 | 299 | 4.8 | 9.7 | 0.00 | 0.00 | 0.00 | 37 | 1011.7 |
| 20260504000042 | 13 | 266 | 4.8 | 11.3 | 0.00 | 0.00 | 0.00 | 36 | 1011.7 |
| 20260503235513 | 12 | 262 | 1.6 | 4.8 | 0.00 | 0.00 | 0.00 | 38 | 1011.9 |
| 20260503235056 | 12 | 276 | 1.6 | 4.8 | 0.00 | 0.00 | 0.00 | 40 | 1011.8 |
| 20260503234511 | 13 | 271 | 0.0 | 0.0 | 0.00 | 0.00 | 0.00 | 37 | 1011.8 |
| 20260503234054 | 13 | 271 | 0.0 | 4.8 | 0.00 | 0.00 | 0.00 | 39 | 1011.9 |
| 20260503233534 | 13 | 269 | 1.6 | 6.4 | 0.00 | 0.00 | 0.00 | 36 | 1011.9 |
| 20260503233049 | 13 | 222 | 1.6 | 6.4 | 0.00 | 0.00 | 0.00 | 36 | 1011.8 |
| 20260503232530 | 14 | 209 | 0.0 | 8.0 | 0.00 | 0.00 | 0.00 | 35 | 1011.8 |
| 20260503232005 | 14 | 208 | 1.6 | 11.3 | 0.00 | 0.00 | 0.00 | 34 | 1011.9 |
| 20260503231522 | 14 | 283 | 1.6 | 11.3 | 0.00 | 0.00 | 0.00 | 34 | 1011.8 |
| 20260503231105 | 14 | 246 | 3.2 | 8.0 | 0.00 | 0.00 | 0.00 | 34 | 1011.8 |
| 20260503230543 | 15 | 211 | 1.6 | 4.8 | 0.00 | 0.00 | 0.00 | 34 | 1011.8 |
| 20260503230059 | 15 | 242 | 1.6 | 6.4 | 0.00 | 0.00 | 0.00 | 34 | 1011.7 |
| 20260503225533 | 15 | 208 | 1.6 | 6.4 | 0.00 | 0.00 | 0.00 | 33 | 1011.6 |
| 20260503225014 | 15 | 208 | 1.6 | 4.8 | 0.00 | 0.00 | 0.00 | 34 | 1011.7 |
| 20260503224529 | 15 | 233 | 0.0 | 3.2 | 0.00 | 0.00 | 0.00 | 34 | 1011.7 |
| 20260503224008 | 15 | 222 | 0.0 | 9.7 | 0.00 | 0.00 | 0.00 | 33 | 1011.8 |
| 20260503223548 | 15 | 275 | 4.8 | 9.7 | 0.00 | 0.00 | 0.00 | 33 | 1011.7 |
| 20260503223052 | 15 | 240 | 0.0 | 8.0 | 0.00 | 0.00 | 0.00 | 33 | 1011.5 |
| 20260503222529 | 15 | 266 | 4.8 | 11.3 | 0.00 | 0.00 | 0.00 | 33 | 1011.5 |
| 20260503222008 | 15 | 190 | 3.2 | 9.7 | 0.00 | 0.00 | 0.00 | 33 | 1011.5 |
| 20260503221523 | 15 | 304 | 3.2 | 11.3 | 0.00 | 0.00 | 0.00 | 34 | 1011.5 |
| 20260503221002 | 15 | 264 | 3.2 | 11.3 | 0.00 | 0.00 | 0.00 | 32 | 1011.6 |
| 20260503220545 | 15 | 289 | 3.2 | 11.3 | 0.00 | 0.00 | 0.00 | 33 | 1011.5 |
| 20260503220051 | 15 | 312 | 4.8 | 11.3 | 0.00 | 0.00 | 0.00 | 33 | 1011.5 |
| 20260503215532 | 15 | 319 | 0.0 | 9.7 | 0.00 | 0.00 | 0.00 | 32 | 1011.5 |
| 20260503215006 | 15 | 219 | 4.8 | 9.7 | 0.00 | 0.00 | 0.00 | 32 | 1011.8 |
| 20260503214524 | 15 | 281 | 0.0 | 12.9 | 0.00 | 0.00 | 0.00 | 33 | 1011.7 |
| 20260503214001 | 15 | 322 | 6.4 | 12.9 | 0.00 | 0.00 | 0.00 | 33 | 1011.7 |
| 20260503213543 | 15 | 332 | 3.2 | 12.9 | 0.00 | 0.00 | 0.00 | 35 | 1011.8 |
| 20260503213049 | 15 | 326 | 3.2 | 11.3 | 0.00 | 0.00 | 0.00 | 36 | 1011.9 |
| 20260503212527 | 15 | 189 | 3.2 | 12.9 | 0.00 | 0.00 | 0.00 | 33 | 1011.9 |
| 20260503212005 | 15 | 297 | 3.2 | 12.9 | 0.00 | 0.00 | 0.00 | 33 | 1011.9 |
| 20260503211513 | 15 | 289 | 4.8 | 12.9 | 0.00 | 0.00 | 0.00 | 34 | 1011.9 |
| 20260503211056 | 15 | 293 | 8.0 | 16.1 | 0.00 | 0.00 | 0.00 | 35 | 1011.9 |
| 20260503210532 | 15 | 275 | 4.8 | 16.1 | 0.00 | 0.00 | 0.00 | 33 | 1011.9 |
| 20260503210038 | 15 | 306 | 8.0 | 16.1 | 0.00 | 0.00 | 0.00 | 35 | 1011.9 |
| 20260503205516 | 15 | 318 | 9.7 | 16.1 | 0.00 | 0.00 | 0.00 | 35 | 1012.0 |
| 20260503205100 | 15 | 219 | 6.4 | 16.1 | 0.00 | 0.00 | 0.00 | 32 | 1012.1 |
| 20260503204604 | 15 | 288 | 3.2 | 17.7 | 0.00 | 0.00 | 0.00 | 33 | 1012.1 |
| 20260503204041 | 15 | 324 | 9.7 | 17.7 | 0.00 | 0.00 | 0.00 | 34 | 1012.1 |
| 20260503203525 | 15 | 327 | 6.4 | 12.9 | 0.00 | 0.00 | 0.00 | 36 | 1012.2 |
| 20260503203041 | 15 | 283 | 4.8 | 14.5 | 0.00 | 0.00 | 0.00 | 34 | 1012.2 |
| 20260503202515 | 15 | 248 | 8.0 | 17.7 | 0.00 | 0.00 | 0.00 | 35 | 1012.4 |
| 20260503202101 | 15 | 293 | 9.7 | 17.7 | 0.00 | 0.00 | 0.00 | 34 | 1012.3 |
| 20260503201603 | 15 | 294 | 6.4 | 16.1 | 0.00 | 0.00 | 0.00 | 37 | 1012.4 |
| 20260503201045 | 15 | 342 | 6.4 | 16.1 | 0.00 | 0.00 | 0.00 | 34 | 1012.4 |
| 20260503200519 | 15 | 331 | 6.4 | 16.1 | 0.00 | 0.00 | 0.00 | 36 | 1012.5 |
| 20260503200035 | 15 | 305 | 4.8 | 17.7 | 0.00 | 0.00 | 0.00 | 34 | 1012.6 |
| 20260503195513 | 15 | 274 | 9.7 | 17.7 | 0.00 | 0.00 | 0.00 | 35 | 1012.6 |
| 20260503195055 | 15 | 324 | 3.2 | 12.9 | 0.00 | 0.00 | 0.00 | 35 | 1012.7 |
| 20260503194511 | 15 | 328 | 4.8 | 19.3 | 0.00 | 0.00 | 0.00 | 34 | 1013.0 |
| 20260503194051 | 15 | 330 | 12.9 | 19.3 | 0.00 | 0.00 | 0.00 | 35 | 1012.9 |
| 20260503193532 | 15 | 175 | 3.2 | 12.9 | 0.00 | 0.00 | 0.00 | 35 | 1013.0 |
| 20260503193047 | 15 | 291 | 8.0 | 12.9 | 0.00 | 0.00 | 0.00 | 34 | 1013.0 |
| 20260503192525 | 15 | 258 | 3.2 | 16.1 | 0.00 | 0.00 | 0.00 | 34 | 1013.0 |
| 20260503192004 | 15 | 239 | 8.0 | 16.1 | 0.00 | 0.00 | 0.00 | 35 | 1013.1 |
| 20260503191519 | 15 | 318 | 9.7 | 14.5 | 0.00 | 0.00 | 0.00 | 35 | 1013.3 |
| 20260503191103 | 15 | 313 | 6.4 | 12.9 | 0.00 | 0.00 | 0.00 | 37 | 1013.3 |
| 20260503190540 | 14 | 311 | 4.8 | 12.9 | 0.00 | 0.00 | 0.00 | 36 | 1013.3 |
| 20260503190055 | 14 | 312 | 4.8 | 14.5 | 0.00 | 0.00 | 0.00 | 36 | 1013.3 |
| 20260503185529 | 14 | 304 | 6.4 | 16.1 | 0.00 | 0.00 | 0.00 | 35 | 1013.4 |
| 20260503185007 | 14 | 149 | 4.8 | 12.9 | 0.00 | 0.00 | 0.00 | 35 | 1013.4 |
| 20260503184524 | 13 | 132 | 1.6 | 12.9 | 0.00 | 0.00 | 0.00 | 34 | 1013.5 |
| 20260503184002 | 13 | 243 | 3.2 | 12.9 | 0.00 | 0.00 | 0.00 | 35 | 1013.8 |
| 20260503183543 | 13 | 354 | 6.4 | 12.9 | 0.00 | 0.00 | 0.00 | 37 | 1013.7 |
| 20260503183052 | 13 | 218 | 3.2 | 17.7 | 0.00 | 0.00 | 0.00 | 36 | 1013.8 |
| 20260503182527 | 13 | 52 | 4.8 | 17.7 | 0.00 | 0.00 | 0.00 | 36 | 1013.8 |
| 20260503182006 | 13 | 200 | 4.8 | 24.1 | 0.00 | 0.00 | 0.00 | 37 | 1013.8 |
| 20260503181512 | 13 | 266 | 12.9 | 24.1 | 0.00 | 0.00 | 0.00 | 36 | 1013.8 |
| 20260503181055 | 13 | 247 | 6.4 | 22.5 | 0.00 | 0.00 | 0.00 | 36 | 1013.9 |
| 20260503180535 | 13 | 287 | 11.3 | 22.5 | 0.00 | 0.00 | 0.00 | 36 | 1014.0 |
| 20260503180039 | 13 | 297 | 6.4 | 17.7 | 0.00 | 0.00 | 0.00 | 36 | 1014.0 |
| 20260503175515 | 13 | 337 | 4.8 | 14.5 | 0.00 | 0.00 | 0.00 | 36 | 1013.9 |
| 20260503175058 | 13 | 315 | 1.6 | 14.5 | 0.00 | 0.00 | 0.00 | 35 | 1013.6 |
| 20260503174603 | 13 | 238 | 4.8 | 16.1 | 0.00 | 0.00 | 0.00 | 35 | 1013.9 |
| 20260503174041 | 13 | 299 | 8.0 | 16.1 | 0.00 | 0.00 | 0.00 | 35 | 1014.0 |
| 20260503173519 | 13 | 303 | 3.2 | 14.5 | 0.00 | 0.00 | 0.00 | 36 | 1013.9 |
| 20260503173037 | 12 | 297 | 9.7 | 14.5 | 0.00 | 0.00 | 0.00 | 36 | 1014.1 |
| 20260503172517 | 12 | 275 | 6.4 | 17.7 | 0.00 | 0.00 | 0.00 | 37 | 1014.2 |
| 20260503172056 | 12 | 324 | 9.7 | 17.7 | 0.00 | 0.00 | 0.00 | 37 | 1014.4 |
| 20260503171510 | 12 | 314 | 4.8 | 14.5 | 0.00 | 0.00 | 0.00 | 35 | 1014.2 |
| 20260503171053 | 12 | 315 | 8.0 | 14.5 | 0.00 | 0.00 | 0.00 | 36 | 1014.3 |
| 20260503170528 | 12 | 334 | 4.8 | 17.7 | 0.00 | 0.00 | 0.00 | 37 | 1014.5 |
| 20260503151004 | 9 | 16 | 1.6 | 12.9 | 0.00 | 0.00 | 0.00 | 47 | 1015.7 |
| 20260503150547 | 9 | 251 | 1.6 | 9.7 | 0.00 | 0.00 | 0.00 | 47 | 1015.6 |